Time;durP1;ratioP1;P1;durP2;ratioP2;P2;SDS_P1;SDS_P2;PMS_P1;PMS_P2;Temp;Humidity;BMP_temperature;BMP_pressure;BME280_temperature;BME280_humidity;BME280_pressure;Samples;Min_cycle;Max_cycle;Signal;HPM_P1;HPM_P2
2021/06/19 00:00:14;;;;;;;19.80;18.20;;;25.20;99.90;;;;;;5069380;28;20230;-65
2021/06/19 00:02:43;;;;;;;20.13;18.40;;;25.10;99.90;;;;;;5069808;28;20234;-67
2021/06/19 00:05:12;;;;;;;17.57;15.77;;;25.00;99.90;;;;;;5069204;28;20237;-66
2021/06/19 00:07:41;;;;;;;15.43;13.37;;;24.80;99.90;;;;;;5069627;28;20245;-67
2021/06/19 00:10:13;;;;;;;13.40;12.10;;;24.70;99.90;;;;;;5069058;28;20608;-66
2021/06/19 00:12:43;;;;;;;11.53;10.43;;;24.60;99.90;;;;;;5069832;28;20236;-66
2021/06/19 00:15:13;;;;;;;11.07;9.97;;;24.60;99.90;;;;;;5069360;28;20587;-67
2021/06/19 00:17:42;;;;;;;9.80;8.83;;;24.50;99.90;;;;;;5069957;28;20244;-67
2021/06/19 00:20:13;;;;;;;10.07;8.90;;;24.40;99.90;;;;;;5068982;28;20314;-66
2021/06/19 00:22:43;;;;;;;9.57;8.30;;;24.40;99.90;;;;;;5069369;28;20695;-66
2021/06/19 00:25:15;;;;;;;8.63;7.80;;;24.40;99.90;;;;;;5068750;28;20241;-66
2021/06/19 00:27:44;;;;;;;12.23;8.23;;;24.40;99.90;;;;;;5069575;28;20242;-66
2021/06/19 00:30:13;;;;;;;9.20;7.07;;;24.40;99.90;;;;;;5068878;28;20239;-67
2021/06/19 00:32:42;;;;;;;9.10;7.57;;;24.40;99.90;;;;;;5069320;28;20291;-66
2021/06/19 00:35:11;;;;;;;8.73;7.40;;;24.30;99.90;;;;;;5068444;28;20327;-66
2021/06/19 00:37:39;;;;;;;8.27;6.80;;;24.40;99.90;;;;;;5068283;28;20240;-66
2021/06/19 00:40:09;;;;;;;7.50;6.77;;;24.30;99.90;;;;;;5068718;28;20242;-66
2021/06/19 00:42:39;;;;;;;8.30;7.50;;;24.30;99.90;;;;;;5069288;28;20233;-66
2021/06/19 00:45:08;;;;;;;8.70;7.23;;;24.30;99.90;;;;;;5068957;28;20231;-66
2021/06/19 00:47:39;;;;;;;8.23;6.83;;;24.30;99.90;;;;;;5069197;28;20243;-66
2021/06/19 00:50:08;;;;;;;7.97;7.13;;;24.30;99.90;;;;;;5068562;28;20311;-67
2021/06/19 00:52:36;;;;;;;7.97;7.17;;;24.30;99.90;;;;;;5068065;28;20321;-66
2021/06/19 00:55:05;;;;;;;7.70;7.00;;;24.20;99.90;;;;;;5068664;28;20701;-66
2021/06/19 00:57:34;;;;;;;8.83;7.43;;;24.20;99.90;;;;;;5069055;28;20235;-66
2021/06/19 01:00:04;;;;;;;8.87;7.27;;;24.10;99.90;;;;;;5068240;28;20520;-65
2021/06/19 01:02:33;;;;;;;7.70;6.90;;;24.10;99.90;;;;;;5068838;28;20244;-66
2021/06/19 01:05:01;;;;;;;8.57;7.37;;;24.10;99.90;;;;;;5068486;28;20236;-66
2021/06/19 01:07:29;;;;;;;8.97;7.20;;;24.10;99.90;;;;;;5068719;28;20237;-66
2021/06/19 01:09:57;;;;;;;11.57;7.13;;;24.00;99.90;;;;;;5068436;28;20236;-66
2021/06/19 01:12:26;;;;;;;11.37;7.00;;;24.00;99.90;;;;;;5067936;28;20295;-66
2021/06/19 01:14:55;;;;;;;7.97;7.17;;;24.00;99.90;;;;;;5068327;28;20867;-67
2021/06/19 01:17:25;;;;;;;8.83;6.93;;;23.90;99.90;;;;;;5068782;28;20595;-66
2021/06/19 01:20:04;;;;;;;9.80;7.40;;;23.90;99.90;;;;;;5068172;28;20237;-66
2021/06/19 01:22:33;;;;;;;7.90;7.07;;;23.80;99.90;;;;;;5064829;28;20237;-66
2021/06/19 01:25:04;;;;;;;8.23;6.63;;;23.80;99.90;;;;;;5057755;28;20701;-67
2021/06/19 01:27:33;;;;;;;8.17;7.37;;;23.80;99.90;;;;;;5067934;28;20234;-66
2021/06/19 01:30:02;;;;;;;8.70;7.10;;;23.80;99.90;;;;;;5067651;28;20530;-66
2021/06/19 01:32:36;;;;;;;8.63;7.83;;;23.70;99.90;;;;;;5068042;28;20325;-67
2021/06/19 01:35:05;;;;;;;9.10;7.20;;;23.70;99.90;;;;;;5067682;28;20227;-66
2021/06/19 01:37:33;;;;;;;7.90;7.10;;;23.70;99.90;;;;;;5067375;28;20250;-66
2021/06/19 01:40:09;;;;;;;8.77;7.30;;;23.70;99.90;;;;;;5067554;28;20257;-66
2021/06/19 01:42:40;;;;;;;10.33;7.73;;;23.70;99.90;;;;;;5067574;28;20281;-66
2021/06/19 01:45:13;;;;;;;8.07;7.37;;;23.60;99.90;;;;;;5067907;28;20235;-66
2021/06/19 01:47:41;;;;;;;8.93;7.30;;;23.60;99.90;;;;;;5068026;28;20243;-66
2021/06/19 01:50:10;;;;;;;8.53;7.63;;;23.60;99.90;;;;;;5067482;28;20250;-66
2021/06/19 01:52:40;;;;;;;9.07;8.10;;;23.50;99.90;;;;;;5067490;28;20242;-66
2021/06/19 01:55:10;;;;;;;9.30;8.13;;;23.50;99.90;;;;;;5067423;28;20237;-66
2021/06/19 01:57:38;;;;;;;8.27;7.43;;;23.50;99.90;;;;;;5067936;28;20266;-65
2021/06/19 02:00:12;;;;;;;9.03;8.07;;;23.40;99.90;;;;;;5067549;28;20259;-66
2021/06/19 02:02:41;;;;;;;8.87;8.07;;;23.40;99.90;;;;;;5067808;28;20338;-67
2021/06/19 02:05:12;;;;;;;9.13;8.07;;;23.40;99.90;;;;;;5067270;28;20612;-66
2021/06/19 02:07:47;;;;;;;10.57;8.00;;;23.40;99.90;;;;;;5082884;28;20289;-65
2021/06/19 02:10:18;;;;;;;8.43;7.60;;;23.30;99.90;;;;;;5067412;28;20296;-66
2021/06/19 02:12:47;;;;;;;9.30;8.37;;;23.30;99.90;;;;;;5067501;28;20732;-66
2021/06/19 02:15:16;;;;;;;9.17;8.43;;;23.30;99.90;;;;;;5067278;28;20898;-66
2021/06/19 02:17:45;;;;;;;10.23;8.53;;;23.30;99.90;;;;;;5067811;28;20266;-66
2021/06/19 02:20:15;;;;;;;10.37;8.30;;;23.20;99.90;;;;;;5019288;28;20831;-66
2021/06/19 02:22:43;;;;;;;9.87;8.87;;;23.20;99.90;;;;;;1011725;28;10002007;-66
2021/06/19 02:25:15;;;;;;;10.20;9.20;;;23.20;99.90;;;;;;5046786;28;20231;-66
2021/06/19 02:27:49;;;;;;;11.17;10.17;;;23.20;99.90;;;;;;5047332;28;20682;-66
2021/06/19 02:30:19;;;;;;;10.77;9.23;;;23.10;99.90;;;;;;5046978;28;20284;-66
2021/06/19 02:32:47;;;;;;;12.23;10.77;;;23.10;99.90;;;;;;5043784;28;20224;-66
2021/06/19 02:35:16;;;;;;;11.07;10.17;;;23.10;99.90;;;;;;5047001;28;20313;-66
2021/06/19 02:37:44;;;;;;;11.37;10.20;;;23.10;99.90;;;;;;5047428;28;20235;-66
2021/06/19 02:40:13;;;;;;;10.20;9.20;;;23.10;99.90;;;;;;5046563;28;20335;-66
2021/06/19 02:42:42;;;;;;;11.67;10.43;;;23.00;99.90;;;;;;5047050;28;20263;-66
2021/06/19 02:45:13;;;;;;;12.60;11.30;;;23.10;99.90;;;;;;5046693;28;20312;-65
2021/06/19 02:47:43;;;;;;;13.27;11.40;;;23.00;99.90;;;;;;5047314;28;20231;-65
2021/06/19 02:50:13;;;;;;;12.53;10.97;;;23.00;99.90;;;;;;5046411;28;20236;-65
2021/06/19 02:52:43;;;;;;;12.47;11.17;;;23.00;99.90;;;;;;5046700;28;20314;-66
2021/06/19 02:55:12;;;;;;;12.60;11.57;;;23.00;99.90;;;;;;5046677;28;20231;-66
2021/06/19 02:57:41;;;;;;;11.70;10.43;;;23.00;99.90;;;;;;5047051;28;20298;-66
2021/06/19 03:00:13;;;;;;;12.30;11.30;;;23.00;99.90;;;;;;5046538;28;20236;-66
2021/06/19 03:02:42;;;;;;;13.00;11.70;;;23.00;99.90;;;;;;5047077;28;20246;-66
2021/06/19 03:05:13;;;;;;;13.50;11.30;;;23.00;99.90;;;;;;5046851;28;20232;-66
2021/06/19 03:07:42;;;;;;;12.27;11.13;;;23.00;99.90;;;;;;5046864;28;20242;-66
2021/06/19 03:10:14;;;;;;;14.13;10.77;;;23.00;99.90;;;;;;5046386;28;20232;-66
2021/06/19 03:12:42;;;;;;;12.77;11.47;;;23.00;99.90;;;;;;5046692;28;20309;-66
2021/06/19 03:15:14;;;;;;;12.70;11.50;;;23.00;99.90;;;;;;5046436;28;20714;-65
2021/06/19 03:17:42;;;;;;;12.60;11.07;;;23.00;99.90;;;;;;5046969;28;20243;-66
2021/06/19 03:20:14;;;;;;;12.90;11.57;;;23.00;99.90;;;;;;5045802;28;20240;-66
2021/06/19 03:22:45;;;;;;;11.60;10.50;;;23.00;99.90;;;;;;5046321;28;20241;-65
2021/06/19 03:25:15;;;;;;;11.47;10.37;;;23.00;99.90;;;;;;5046382;28;20232;-66
2021/06/19 03:27:44;;;;;;;12.23;11.13;;;23.00;99.90;;;;;;5046749;28;20248;-66
2021/06/19 03:30:16;;;;;;;13.67;12.53;;;23.00;99.90;;;;;;5046399;28;20232;-66
2021/06/19 03:32:45;;;;;;;13.83;12.60;;;23.00;99.90;;;;;;5046931;28;20243;-66
2021/06/19 03:35:14;;;;;;;14.43;13.03;;;23.00;99.90;;;;;;5046082;28;20240;-65
2021/06/19 03:37:44;;;;;;;14.83;13.50;;;23.00;99.90;;;;;;5046799;28;20290;-66
2021/06/19 03:40:16;;;;;;;14.47;12.83;;;23.00;99.90;;;;;;5046211;28;20231;-65
2021/06/19 03:42:49;;;;;;;15.00;13.60;;;23.00;99.90;;;;;;5046778;28;20581;-66
2021/06/19 03:45:20;;;;;;;16.00;14.57;;;23.00;99.90;;;;;;5046625;28;20232;-66
2021/06/19 03:47:48;;;;;;;18.73;16.90;;;23.00;99.90;;;;;;5046987;28;20558;-66
2021/06/19 03:50:18;;;;;;;16.33;14.70;;;23.00;99.90;;;;;;5046447;28;20232;-65
2021/06/19 03:52:52;;;;;;;15.43;13.93;;;23.00;99.90;;;;;;5045583;28;20246;-65
2021/06/19 03:55:21;;;;;;;18.07;16.17;;;23.00;99.90;;;;;;5045811;28;20235;-66
2021/06/19 03:57:49;;;;;;;19.50;17.67;;;23.00;99.90;;;;;;5046779;28;20236;-65
2021/06/19 04:00:21;;;;;;;17.00;15.27;;;23.00;99.90;;;;;;5047000;28;20243;-66
2021/06/19 04:02:50;;;;;;;17.00;15.60;;;23.00;99.90;;;;;;5049602;28;20699;-65
2021/06/19 04:05:19;;;;;;;21.83;19.73;;;23.10;99.90;;;;;;5049682;28;20242;-66
2021/06/19 04:07:48;;;;;;;20.87;19.07;;;23.10;99.90;;;;;;5050297;28;20819;-65
2021/06/19 04:10:18;;;;;;;18.13;16.50;;;23.10;99.90;;;;;;5049381;28;20236;-66
2021/06/19 04:12:48;;;;;;;18.03;16.43;;;23.10;99.90;;;;;;5049878;28;20622;-66
2021/06/19 04:15:17;;;;;;;21.13;19.20;;;23.10;99.90;;;;;;5049518;28;20247;-66
2021/06/19 04:17:46;;;;;;;18.00;16.30;;;23.10;99.90;;;;;;5049963;28;21289;-65
2021/06/19 04:20:19;;;;;;;20.27;18.43;;;23.10;99.90;;;;;;5048910;28;20327;-65
2021/06/19 04:22:48;;;;;;;22.57;20.53;;;23.20;99.90;;;;;;5049899;28;20583;-66
2021/06/19 04:25:19;;;;;;;24.60;22.50;;;23.20;99.90;;;;;;5049494;28;20572;-65
2021/06/19 04:27:49;;;;;;;19.93;18.27;;;23.30;99.90;;;;;;5049747;28;20236;-65
2021/06/19 04:30:18;;;;;;;20.93;19.03;;;23.40;99.90;;;;;;5049102;28;20234;-66
2021/06/19 04:32:50;;;;;;;20.67;18.77;;;23.60;99.90;;;;;;5045881;28;20320;-66
2021/06/19 04:35:19;;;;;;;19.87;18.07;;;23.70;99.90;;;;;;5036600;28;20241;-66
2021/06/19 04:37:47;;;;;;;21.30;19.43;;;23.80;99.90;;;;;;5029821;28;20337;-65
2021/06/19 04:40:21;;;;;;;19.53;17.83;;;23.80;99.90;;;;;;5028975;28;20247;-66
2021/06/19 04:42:57;;;;;;;22.57;20.50;;;23.80;99.90;;;;;;5028977;28;20746;-65
2021/06/19 04:45:26;;;;;;;20.13;18.37;;;23.90;99.90;;;;;;5042127;28;20785;-65
2021/06/19 04:48:00;;;;;;;24.33;22.23;;;23.90;99.90;;;;;;5049537;28;20260;-65
2021/06/19 04:50:29;;;;;;;21.50;19.70;;;24.00;99.90;;;;;;5048313;28;20689;-66
2021/06/19 04:52:58;;;;;;;22.87;20.93;;;24.00;99.90;;;;;;5049209;28;20717;-65
2021/06/19 04:55:28;;;;;;;24.47;22.20;;;24.00;99.90;;;;;;5048142;28;20275;-66
2021/06/19 04:57:57;;;;;;;22.30;20.27;;;24.00;99.90;;;;;;5049345;28;20238;-66
2021/06/19 05:00:27;;;;;;;22.13;20.13;;;24.10;99.90;;;;;;5048524;28;20597;-66
2021/06/19 05:02:56;;;;;;;21.87;19.90;;;24.10;99.90;;;;;;5048910;28;20628;-65
2021/06/19 05:05:28;;;;;;;22.50;20.63;;;24.20;99.90;;;;;;5048430;28;20249;-65
2021/06/19 05:07:56;;;;;;;24.77;22.47;;;24.10;99.90;;;;;;5048621;28;20642;-65
2021/06/19 05:10:24;;;;;;;23.77;21.57;;;24.10;99.90;;;;;;5048257;28;20657;-65
2021/06/19 05:12:52;;;;;;;23.63;21.43;;;24.10;99.90;;;;;;5048722;28;20242;-65
2021/06/19 05:15:24;;;;;;;28.47;26.03;;;24.00;99.90;;;;;;5048250;28;20248;-66
2021/06/19 05:17:52;;;;;;;24.97;22.70;;;24.10;99.90;;;;;;5048581;28;20227;-66
2021/06/19 05:20:20;;;;;;;26.50;24.07;;;24.10;99.90;;;;;;5047529;28;20255;-65
2021/06/19 05:22:50;;;;;;;26.90;24.17;;;24.10;99.90;;;;;;5048849;28;20580;-66
2021/06/19 05:25:18;;;;;;;29.17;26.37;;;24.10;99.90;;;;;;5048389;28;20327;-66
2021/06/19 05:27:46;;;;;;;26.40;23.90;;;24.30;99.90;;;;;;5048565;28;20260;-66
2021/06/19 05:30:15;;;;;;;24.67;22.47;;;24.40;99.90;;;;;;5048043;28;20600;-65
2021/06/19 05:32:44;;;;;;;24.40;22.10;;;24.60;99.90;;;;;;5048155;28;20649;-65
2021/06/19 05:35:13;;;;;;;22.73;20.57;;;24.90;99.90;;;;;;5047485;28;20243;-65
2021/06/19 05:37:41;;;;;;;23.50;21.20;;;25.10;99.90;;;;;;5047774;28;20271;-65
2021/06/19 05:40:11;;;;;;;22.17;19.97;;;25.30;99.90;;;;;;5047824;28;20246;-65
2021/06/19 05:42:39;;;;;;;19.77;17.87;;;25.50;99.90;;;;;;5047958;28;20242;-66
2021/06/19 05:45:09;;;;;;;20.63;18.67;;;25.70;99.90;;;;;;5047630;28;20592;-65
2021/06/19 05:47:37;;;;;;;18.73;16.77;;;25.80;99.90;;;;;;5027589;28;20272;-65
2021/06/19 05:50:06;;;;;;;18.13;16.33;;;25.90;99.90;;;;;;5038218;28;20239;-65
2021/06/19 05:52:35;;;;;;;17.27;15.30;;;26.10;99.90;;;;;;5047814;28;20237;-65
2021/06/19 05:55:04;;;;;;;25.17;15.27;;;26.30;99.90;;;;;;5047601;28;20237;-66
2021/06/19 05:57:33;;;;;;;16.87;15.20;;;26.40;99.90;;;;;;5047703;28;20629;-66
2021/06/19 06:00:02;;;;;;;16.73;14.37;;;26.20;99.90;;;;;;5047567;28;20243;-65
2021/06/19 06:02:41;;;;;;;14.90;13.37;;;26.00;99.90;;;;;;5067948;28;20236;-66
2021/06/19 06:05:10;;;;;;;14.67;13.10;;;25.80;99.90;;;;;;5061832;28;21813;-66
2021/06/19 06:07:38;;;;;;;14.80;11.90;;;25.90;99.90;;;;;;5067606;28;20247;-65
2021/06/19 06:10:07;;;;;;;12.83;11.53;;;26.10;99.90;;;;;;5056350;28;20257;-66
2021/06/19 06:12:37;;;;;;;15.37;10.80;;;26.20;99.90;;;;;;5045943;28;20446;-67
2021/06/19 06:15:08;;;;;;;12.90;9.53;;;26.40;99.90;;;;;;5045914;28;20598;-65
2021/06/19 06:17:36;;;;;;;11.80;10.23;;;26.70;99.90;;;;;;5046413;28;20241;-65
2021/06/19 06:20:06;;;;;;;10.60;9.30;;;26.90;99.90;;;;;;5045512;28;20245;-66
2021/06/19 06:22:34;;;;;;;9.70;8.23;;;27.20;99.90;;;;;;5046112;28;20624;-66
2021/06/19 06:25:02;;;;;;;11.77;8.37;;;27.40;99.90;;;;;;5044584;28;20327;-66
2021/06/19 06:27:30;;;;;;;9.03;7.33;;;27.60;99.90;;;;;;5045789;28;20245;-66
2021/06/19 06:30:00;;;;;;;8.87;6.93;;;27.90;99.90;;;;;;5045485;28;20591;-65
2021/06/19 06:32:29;;;;;;;7.43;6.23;;;28.10;99.90;;;;;;5045573;28;20374;-66
2021/06/19 06:34:57;;;;;;;8.87;6.27;;;28.30;99.90;;;;;;5045201;28;20230;-65
2021/06/19 06:37:25;;;;;;;6.17;5.13;;;28.30;99.90;;;;;;5045523;28;20771;-66
2021/06/19 06:39:54;;;;;;;8.23;5.60;;;28.40;99.90;;;;;;5045753;28;20611;-66
2021/06/19 06:42:22;;;;;;;7.77;4.73;;;28.50;99.90;;;;;;5046047;28;20246;-65
2021/06/19 06:44:50;;;;;;;8.10;5.40;;;28.40;99.90;;;;;;5046396;28;20245;-66
2021/06/19 06:47:20;;;;;;;7.80;5.00;;;28.50;99.90;;;;;;5047325;28;20322;-66
2021/06/19 06:49:48;;;;;;;6.17;4.60;;;28.60;99.90;;;;;;5046791;28;20494;-66
2021/06/19 06:52:16;;;;;;;8.30;4.50;;;28.90;99.90;;;;;;5046907;28;20432;-66
2021/06/19 06:54:45;;;;;;;4.80;4.30;;;29.20;99.90;;;;;;5046785;28;20232;-65
2021/06/19 06:57:13;;;;;;;7.10;4.83;;;29.50;99.90;;;;;;5046868;28;20234;-66
2021/06/19 06:59:42;;;;;;;8.47;4.70;;;29.80;99.90;;;;;;5046470;28;20232;-65
2021/06/19 07:02:11;;;;;;;4.40;4.03;;;30.00;99.90;;;;;;5046882;28;20246;-66
2021/06/19 07:04:41;;;;;;;6.03;4.17;;;29.80;99.90;;;;;;5046596;28;20244;-65
2021/06/19 07:07:09;;;;;;;5.93;4.43;;;29.60;99.90;;;;;;5046914;28;20443;-65
2021/06/19 07:09:38;;;;;;;4.77;4.20;;;29.40;99.90;;;;;;5046385;28;20243;-66
2021/06/19 07:12:07;;;;;;;6.37;4.17;;;29.30;99.90;;;;;;5046817;28;20458;-65
2021/06/19 07:14:35;;;;;;;5.30;3.80;;;29.10;99.90;;;;;;5046757;28;20255;-66
2021/06/19 07:17:07;;;;;;;4.50;4.03;;;29.00;99.90;;;;;;5046308;28;20372;-66
2021/06/19 07:19:35;;;;;;;7.20;4.30;;;29.10;99.90;;;;;;5046093;28;20246;-65
2021/06/19 07:22:07;;;;;;;3.90;3.50;;;29.40;99.90;;;;;;5046461;28;20232;-66
2021/06/19 07:24:35;;;;;;;4.37;3.40;;;29.70;99.90;;;;;;5046790;28;20278;-66
2021/06/19 07:27:04;;;;;;;4.97;3.20;;;30.10;99.90;;;;;;5046140;28;20262;-66
2021/06/19 07:29:33;;;;;;;2.70;2.50;;;30.10;99.90;;;;;;5045340;28;20254;-66
2021/06/19 07:32:01;;;;;;;5.20;2.87;;;30.00;99.90;;;;;;5046307;28;20231;-65
2021/06/19 07:34:30;;;;;;;2.93;2.50;;;30.10;99.90;;;;;;5046043;28;20247;-66
2021/06/19 07:36:58;;;;;;;3.63;2.70;;;30.00;99.90;;;;;;5049151;28;20318;-66
2021/06/19 07:39:28;;;;;;;4.00;2.70;;;30.10;99.90;;;;;;5049892;28;20703;-66
2021/06/19 07:41:57;;;;;;;3.60;2.67;;;30.20;99.90;;;;;;5050253;28;20249;-66
2021/06/19 07:44:25;;;;;;;4.63;2.80;;;30.40;99.90;;;;;;5047048;28;20321;-66
2021/06/19 07:46:54;;;;;;;5.38;3.00;;;30.30;99.90;;;;;;5047353;28;20515;-67
2021/06/19 07:49:23;;;;;;;5.13;2.90;;;30.10;99.90;;;;;;5047616;28;20450;-66
2021/06/19 07:51:51;;;;;;;4.10;2.77;;;30.00;99.90;;;;;;5048490;28;20236;-66
2021/06/19 07:54:19;;;;;;;4.23;2.80;;;30.10;99.90;;;;;;5046563;28;20235;-65
2021/06/19 07:56:48;;;;;;;3.70;2.53;;;30.30;99.90;;;;;;5048082;28;20250;-66
2021/06/19 07:59:17;;;;;;;3.23;2.60;;;30.30;99.90;;;;;;5048549;28;20309;-65
2021/06/19 08:01:45;;;;;;;4.27;2.77;;;30.60;99.90;;;;;;5048508;28;20236;-65
2021/06/19 08:04:13;;;;;;;3.67;2.90;;;30.70;99.90;;;;;;5048238;28;20364;-65
2021/06/19 08:06:41;;;;;;;4.27;2.90;;;31.00;99.90;;;;;;5048566;28;20228;-65
2021/06/19 08:09:09;;;;;;;3.20;2.40;;;31.20;99.90;;;;;;5047939;28;20682;-65
2021/06/19 08:11:37;;;;;;;7.87;2.87;;;31.40;99.90;;;;;;5047382;28;20228;-65
2021/06/19 08:14:07;;;;;;;2.90;2.63;;;31.50;99.90;;;;;;5047998;28;20220;-65
2021/06/19 08:16:35;;;;;;;2.73;2.33;;;31.40;99.90;;;;;;5047698;28;20246;-65
2021/06/19 08:19:03;;;;;;;6.30;2.93;;;31.30;99.90;;;;;;5047023;28;20720;-65
2021/06/19 08:21:31;;;;;;;3.83;2.20;;;31.00;99.90;;;;;;5048279;28;20240;-65
2021/06/19 08:23:59;;;;;;;3.03;2.73;;;30.90;99.90;;;;;;5047124;28;20256;-65
2021/06/19 08:26:28;;;;;;;5.00;2.50;;;30.80;99.90;;;;;;5046998;28;20264;-65
2021/06/19 08:28:56;;;;;;;5.33;2.40;;;30.70;99.90;;;;;;5047055;28;20881;-65
2021/06/19 08:31:25;;;;;;;3.28;2.05;;;30.10;99.90;;;;;;5046334;28;20408;-66
2021/06/19 08:33:53;;;;;;;2.10;2.00;;;29.70;99.90;;;;;;5045943;28;20263;-64
2021/06/19 08:36:21;;;;;;;4.57;2.20;;;29.80;99.90;;;;;;5046060;28;20323;-63
2021/06/19 08:38:49;;;;;;;3.17;1.90;;;29.80;99.90;;;;;;5046864;28;20236;-63
2021/06/19 08:41:19;;;;;;;3.57;1.87;;;29.70;99.90;;;;;;5046239;28;20228;-63
2021/06/19 08:43:47;;;;;;;2.83;1.70;;;29.70;99.90;;;;;;5046685;28;20290;-64
2021/06/19 08:46:19;;;;;;;5.17;2.13;;;30.20;99.90;;;;;;5026648;28;20237;-64
2021/06/19 08:48:52;;;;;;;4.37;2.30;;;30.70;99.90;;;;;;5029806;28;20662;-63
2021/06/19 08:51:20;;;;;;;6.77;1.70;;;31.00;99.90;;;;;;5042023;28;20952;-64
2021/06/19 08:53:50;;;;;;;3.00;1.87;;;31.10;99.90;;;;;;5045382;28;20236;-64
2021/06/19 08:56:20;;;;;;;3.17;1.93;;;31.30;99.90;;;;;;5026718;28;20290;-63
2021/06/19 08:58:49;;;;;;;2.97;2.10;;;31.50;99.90;;;;;;5039420;28;20311;-63
2021/06/19 09:01:17;;;;;;;2.43;2.10;;;31.70;99.90;;;;;;5026685;28;20314;-63
2021/06/19 09:03:46;;;;;;;4.77;2.30;;;31.40;99.90;;;;;;5043833;28;20232;-63
2021/06/19 09:06:24;;;;;;;2.67;1.97;;;31.10;99.90;;;;;;5047538;28;20228;-64
2021/06/19 09:09:09;;;;;;;5.30;2.33;;;30.90;99.90;;;;;;5047608;28;20236;-64
2021/06/19 09:11:39;;;;;;;3.10;2.20;;;30.60;99.90;;;;;;5045753;28;20231;-63
2021/06/19 09:14:08;;;;;;;3.83;2.20;;;30.60;99.90;;;;;;5047504;28;20235;-63
2021/06/19 09:16:39;;;;;;;5.03;2.43;;;30.50;99.90;;;;;;5048048;28;20231;-64
2021/06/19 09:19:24;;;;;;;3.63;2.20;;;30.30;99.90;;;;;;5047503;28;20238;-63
2021/06/19 09:22:15;;;;;;;4.20;2.03;;;30.40;99.90;;;;;;5046537;28;20699;-64
2021/06/19 09:24:46;;;;;;;4.27;2.20;;;30.60;99.90;;;;;;5045500;28;20231;-64
2021/06/19 09:27:33;;;;;;;2.37;2.17;;;31.00;99.90;;;;;;5043568;28;20236;-64
2021/06/19 09:30:13;;;;;;;2.93;2.03;;;31.40;99.90;;;;;;5040401;28;20225;-63
2021/06/19 09:32:46;;;;;;;5.27;2.27;;;31.50;99.90;;;;;;5045024;28;20772;-63
2021/06/19 09:35:16;;;;;;;2.87;2.37;;;31.50;99.90;;;;;;5047756;28;20289;-64
2021/06/19 09:37:48;;;;;;;4.23;2.10;;;31.50;99.90;;;;;;5047746;28;20239;-63
2021/06/19 09:40:32;;;;;;;2.47;1.97;;;31.90;99.90;;;;;;5047036;28;20643;-63
2021/06/19 09:43:23;;;;;;;2.30;2.00;;;32.30;99.40;;;;;;5047614;28;20324;-64
2021/06/19 09:46:02;;;;;;;2.10;1.80;;;32.20;99.50;;;;;;5040487;28;20241;-63
2021/06/19 09:48:33;;;;;;;2.57;1.60;;;32.40;98.50;;;;;;5047979;28;20244;-63
2021/06/19 09:51:14;;;;;;;2.97;1.60;;;32.20;98.80;;;;;;5043237;28;20313;-63
2021/06/19 09:53:46;;;;;;;3.10;1.90;;;32.20;99.00;;;;;;5047661;28;20291;-62
2021/06/19 09:56:16;;;;;;;2.97;1.80;;;32.50;98.90;;;;;;5046449;28;20323;-62
2021/06/19 09:58:46;;;;;;;2.27;1.97;;;32.90;98.20;;;;;;5045724;28;20253;-63
2021/06/19 10:01:36;;;;;;;2.87;2.00;;;32.80;98.80;;;;;;5044403;28;20259;-63
2021/06/19 10:04:05;;;;;;;4.43;1.80;;;33.00;97.60;;;;;;5046905;28;20235;-63
2021/06/19 10:06:36;;;;;;;2.47;1.80;;;33.30;98.00;;;;;;5047372;28;20245;-63
2021/06/19 10:09:06;;;;;;;2.20;1.93;;;33.20;97.70;;;;;;5047249;28;20624;-64
2021/06/19 10:11:34;;;;;;;3.43;1.83;;;33.50;97.80;;;;;;5047585;28;20691;-63
2021/06/19 10:14:03;;;;;;;1.83;1.70;;;33.40;97.00;;;;;;5046602;28;20243;-63
2021/06/19 10:16:32;;;;;;;3.77;2.13;;;32.80;97.50;;;;;;5047064;28;20755;-64
2021/06/19 10:19:00;;;;;;;3.63;2.00;;;32.20;98.30;;;;;;5047104;28;20263;-63
2021/06/19 10:21:28;;;;;;;2.50;1.80;;;32.40;98.20;;;;;;5045820;28;20246;-63
2021/06/19 10:23:57;;;;;;;2.43;1.70;;;32.80;98.20;;;;;;5045291;28;20250;-63
2021/06/19 10:26:27;;;;;;;2.90;1.80;;;33.10;97.20;;;;;;5062237;28;20321;-62
2021/06/19 10:28:58;;;;;;;1.90;1.80;;;33.00;97.30;;;;;;5046830;28;20753;-63
2021/06/19 10:31:27;;;;;;;4.87;1.80;;;32.90;97.30;;;;;;5061769;28;20771;-63
2021/06/19 10:33:56;;;;;;;3.63;1.83;;;32.60;97.20;;;;;;5047389;28;20231;-63
2021/06/19 10:36:37;;;;;;;2.17;1.97;;;32.30;97.80;;;;;;5047060;28;20243;-63
2021/06/19 10:39:06;;;;;;;2.97;1.80;;;32.40;98.10;;;;;;5045994;28;20243;-63
2021/06/19 10:41:50;;;;;;;3.40;2.00;;;32.70;98.00;;;;;;5045291;28;20327;-63
2021/06/19 10:44:52;;;;;;;2.90;1.70;;;33.40;96.80;;;;;;5046151;28;20737;-63
2021/06/19 10:47:21;;;;;;;3.53;1.60;;;33.50;95.60;;;;;;5041407;28;20567;-63
2021/06/19 10:49:51;;;;;;;3.30;1.67;;;33.20;95.30;;;;;;5044049;28;20266;-63
2021/06/19 10:52:43;;;;;;;3.50;1.90;;;32.60;96.00;;;;;;5044838;28;20270;-63
2021/06/19 10:55:28;;;;;;;1.73;1.60;;;32.30;97.50;;;;;;5029692;28;20260;-63
2021/06/19 10:58:01;;;;;;;2.80;1.90;;;32.70;97.00;;;;;;5030448;28;20233;-63
2021/06/19 11:00:43;;;;;;;2.30;1.60;;;32.60;96.60;;;;;;5023780;28;20241;-63
2021/06/19 11:03:12;;;;;;;3.60;1.50;;;32.60;96.70;;;;;;5025154;28;20238;-64
2021/06/19 11:05:57;;;;;;;2.17;1.70;;;32.80;97.10;;;;;;5040091;28;20254;-63
2021/06/19 11:08:26;;;;;;;1.80;1.70;;;32.90;96.40;;;;;;5042166;28;20245;-63
2021/06/19 11:10:57;;;;;;;3.47;1.70;;;33.40;96.80;;;;;;5047154;28;20249;-63
2021/06/19 11:13:46;;;;;;;1.50;1.40;;;34.10;96.00;;;;;;5048900;28;20879;-63
2021/06/19 11:16:44;;;;;;;1.67;1.57;;;34.40;95.60;;;;;;5049063;28;20239;-63
2021/06/19 11:19:36;;;;;;;3.03;1.60;;;34.80;94.80;;;;;;5048609;28;20239;-63
2021/06/19 11:22:38;;;;;;;2.97;1.53;;;35.10;94.60;;;;;;5048549;28;20326;-63
2021/06/19 11:25:38;;;;;;;2.70;1.60;;;35.10;93.90;;;;;;4976361;28;20253;-63
2021/06/19 11:28:08;;;;;;;3.60;1.67;;;35.10;92.90;;;;;;5049341;28;20326;-63
2021/06/19 11:30:43;;;;;;;4.27;1.67;;;34.80;93.20;;;;;;5048477;28;20224;-63
2021/06/19 11:33:49;;;;;;;1.73;1.63;;;35.10;94.10;;;;;;5047732;28;20257;-63
2021/06/19 11:36:37;;;;;;;3.07;1.63;;;35.10;93.30;;;;;;5048895;28;20236;-63
2021/06/19 11:39:16;;;;;;;3.13;1.63;;;35.20;93.40;;;;;;5048381;28;20319;-63
2021/06/19 11:41:47;;;;;;;3.00;1.50;;;35.40;92.90;;;;;;5048102;28;20293;-63
2021/06/19 11:44:21;;;;;;;2.27;1.50;;;35.40;92.10;;;;;;5049349;28;20263;-63
2021/06/19 11:47:02;;;;;;;1.50;1.40;;;35.30;92.60;;;;;;5033938;28;20240;-63
2021/06/19 11:49:33;;;;;;;2.97;1.47;;;35.60;92.40;;;;;;5029010;28;20238;-63
2021/06/19 11:52:05;;;;;;;1.97;1.50;;;35.70;91.90;;;;;;5028611;28;20290;-63
2021/06/19 11:54:45;;;;;;;2.80;1.60;;;35.50;92.20;;;;;;5044444;28;20262;-63
2021/06/19 11:57:25;;;;;;;3.27;1.50;;;35.00;91.10;;;;;;5038325;28;20487;-63
2021/06/19 12:00:20;;;;;;;3.13;1.70;;;34.70;91.70;;;;;;5046275;28;20263;-63
2021/06/19 12:02:53;;;;;;;2.83;1.70;;;34.50;92.00;;;;;;5038928;28;20327;-63
2021/06/19 12:05:24;;;;;;;3.53;1.93;;;33.90;91.90;;;;;;5049651;28;20289;-63
2021/06/19 12:07:53;;;;;;;2.33;1.90;;;33.90;92.90;;;;;;5050404;28;20259;-62
2021/06/19 12:10:28;;;;;;;1.93;1.73;;;33.50;93.50;;;;;;5047728;28;20586;-63
2021/06/19 12:13:01;;;;;;;1.97;1.60;;;33.40;93.90;;;;;;5046108;28;20558;-63
2021/06/19 12:15:30;;;;;;;2.47;1.80;;;33.40;92.70;;;;;;5044769;28;20293;-63
2021/06/19 12:18:01;;;;;;;3.90;1.80;;;33.30;93.10;;;;;;5048212;28;20259;-63
2021/06/19 12:20:32;;;;;;;3.53;1.90;;;33.10;93.50;;;;;;5046784;28;20707;-63
2021/06/19 12:23:14;;;;;;;2.67;1.70;;;33.20;93.00;;;;;;5047284;28;20316;-63
2021/06/19 12:25:42;;;;;;;2.37;1.70;;;33.00;93.10;;;;;;5047353;28;20241;-63
2021/06/19 12:28:22;;;;;;;2.40;2.00;;;32.90;93.70;;;;;;5047701;28;20249;-63
2021/06/19 12:30:57;;;;;;;2.00;1.80;;;32.80;93.70;;;;;;5042455;28;20235;-63
2021/06/19 12:33:27;;;;;;;2.93;1.90;;;32.70;93.20;;;;;;5061762;28;20254;-63
2021/06/19 12:35:55;;;;;;;2.43;2.00;;;32.70;93.50;;;;;;5047322;28;20744;-63
2021/06/19 12:38:24;;;;;;;2.03;1.83;;;32.50;93.80;;;;;;5047842;28;20322;-63
2021/06/19 12:40:53;;;;;;;3.43;2.10;;;32.80;94.50;;;;;;5030822;28;20236;-63
2021/06/19 12:43:21;;;;;;;2.03;1.93;;;32.80;94.10;;;;;;5028039;28;20788;-63
2021/06/19 12:45:50;;;;;;;3.37;2.00;;;32.60;93.60;;;;;;5044374;28;20228;-63
2021/06/19 12:48:24;;;;;;;1.93;1.83;;;32.20;93.90;;;;;;5047900;28;20269;-63
2021/06/19 12:50:56;;;;;;;2.63;1.80;;;32.20;94.60;;;;;;5055422;28;20319;-63
2021/06/19 12:53:28;;;;;;;2.70;1.90;;;32.30;95.20;;;;;;5067100;28;20238;-64
2021/06/19 12:56:02;;;;;;;4.73;1.90;;;32.60;94.80;;;;;;5081224;28;20322;-62
2021/06/19 12:58:36;;;;;;;3.10;1.80;;;32.70;94.60;;;;;;5048843;28;20573;-62
2021/06/19 13:01:15;;;;;;;2.10;1.90;;;32.50;94.60;;;;;;5046817;28;20241;-62